sensor_id;sensor_type;location;lat;lon;timestamp;P1;durP1;ratioP1;P2;durP2;ratioP2
44036;SDS011;62488;-37.670;-63.532;2023-02-02T00:01:47;4.93;;;2.35;;
44036;SDS011;62488;-37.670;-63.532;2023-02-02T00:04:16;3.88;;;2.15;;
44036;SDS011;62488;-37.670;-63.532;2023-02-02T00:06:48;5.75;;;2.10;;
44036;SDS011;62488;-37.670;-63.532;2023-02-02T00:09:15;5.47;;;2.60;;
44036;SDS011;62488;-37.670;-63.532;2023-02-02T00:11:44;4.83;;;1.70;;
44036;SDS011;62488;-37.670;-63.532;2023-02-02T00:14:13;4.25;;;2.25;;
44036;SDS011;62488;-37.670;-63.532;2023-02-02T00:16:47;5.90;;;2.40;;
44036;SDS011;62488;-37.670;-63.532;2023-02-02T00:19:16;5.05;;;2.60;;
44036;SDS011;62488;-37.670;-63.532;2023-02-02T00:21:46;6.32;;;2.90;;
44036;SDS011;62488;-37.670;-63.532;2023-02-02T00:24:15;4.78;;;2.85;;
44036;SDS011;62488;-37.670;-63.532;2023-02-02T00:26:43;3.97;;;2.50;;
44036;SDS011;62488;-37.670;-63.532;2023-02-02T00:29:14;4.18;;;2.33;;
44036;SDS011;62488;-37.670;-63.532;2023-02-02T00:31:42;4.55;;;2.97;;
44036;SDS011;62488;-37.670;-63.532;2023-02-02T00:34:10;4.97;;;3.13;;
44036;SDS011;62488;-37.670;-63.532;2023-02-02T00:36:38;7.82;;;3.10;;
44036;SDS011;62488;-37.670;-63.532;2023-02-02T00:39:06;10.05;;;3.80;;
44036;SDS011;62488;-37.670;-63.532;2023-02-02T00:41:33;6.72;;;3.70;;
44036;SDS011;62488;-37.670;-63.532;2023-02-02T00:44:00;4.60;;;3.83;;
44036;SDS011;62488;-37.670;-63.532;2023-02-02T00:46:46;7.28;;;3.80;;
44036;SDS011;62488;-37.670;-63.532;2023-02-02T00:49:13;4.18;;;3.67;;
44036;SDS011;62488;-37.670;-63.532;2023-02-02T00:51:40;6.43;;;4.35;;
44036;SDS011;62488;-37.670;-63.532;2023-02-02T00:54:07;9.63;;;3.80;;
44036;SDS011;62488;-37.670;-63.532;2023-02-02T00:56:34;7.07;;;5.20;;
44036;SDS011;62488;-37.670;-63.532;2023-02-02T00:59:00;6.35;;;4.18;;
44036;SDS011;62488;-37.670;-63.532;2023-02-02T01:01:27;4.78;;;4.00;;
44036;SDS011;62488;-37.670;-63.532;2023-02-02T01:03:54;4.57;;;3.70;;
44036;SDS011;62488;-37.670;-63.532;2023-02-02T01:06:22;6.80;;;4.70;;
44036;SDS011;62488;-37.670;-63.532;2023-02-02T01:08:49;8.23;;;4.03;;
44036;SDS011;62488;-37.670;-63.532;2023-02-02T01:11:16;5.15;;;4.03;;
44036;SDS011;62488;-37.670;-63.532;2023-02-02T01:13:43;5.13;;;4.55;;
44036;SDS011;62488;-37.670;-63.532;2023-02-02T01:16:10;6.45;;;4.50;;
44036;SDS011;62488;-37.670;-63.532;2023-02-02T01:18:37;4.93;;;3.95;;
44036;SDS011;62488;-37.670;-63.532;2023-02-02T01:21:06;4.50;;;3.95;;
44036;SDS011;62488;-37.670;-63.532;2023-02-02T01:23:34;6.93;;;4.70;;
44036;SDS011;62488;-37.670;-63.532;2023-02-02T01:26:04;5.55;;;3.80;;
44036;SDS011;62488;-37.670;-63.532;2023-02-02T01:28:32;6.30;;;4.20;;
44036;SDS011;62488;-37.670;-63.532;2023-02-02T01:31:04;8.65;;;4.85;;
44036;SDS011;62488;-37.670;-63.532;2023-02-02T01:33:33;11.45;;;5.15;;
44036;SDS011;62488;-37.670;-63.532;2023-02-02T01:36:03;9.80;;;5.47;;
44036;SDS011;62488;-37.670;-63.532;2023-02-02T01:38:32;6.40;;;4.45;;
44036;SDS011;62488;-37.670;-63.532;2023-02-02T01:40:59;9.25;;;4.55;;
44036;SDS011;62488;-37.670;-63.532;2023-02-02T01:48:39;6.47;;;4.13;;
44036;SDS011;62488;-37.670;-63.532;2023-02-02T01:51:13;4.32;;;3.92;;
44036;SDS011;62488;-37.670;-63.532;2023-02-02T01:53:44;6.30;;;4.20;;
44036;SDS011;62488;-37.670;-63.532;2023-02-02T01:56:13;4.35;;;3.95;;
44036;SDS011;62488;-37.670;-63.532;2023-02-02T01:58:44;5.32;;;4.82;;
44036;SDS011;62488;-37.670;-63.532;2023-02-02T02:01:11;5.05;;;4.30;;
44036;SDS011;62488;-37.670;-63.532;2023-02-02T02:03:39;7.40;;;4.65;;
44036;SDS011;62488;-37.670;-63.532;2023-02-02T02:06:07;6.85;;;4.43;;
44036;SDS011;62488;-37.670;-63.532;2023-02-02T02:08:47;5.45;;;3.50;;
44036;SDS011;62488;-37.670;-63.532;2023-02-02T02:11:29;5.47;;;3.50;;
44036;SDS011;62488;-37.670;-63.532;2023-02-02T02:13:58;7.43;;;4.30;;
44036;SDS011;62488;-37.670;-63.532;2023-02-02T02:19:54;8.65;;;5.85;;
44036;SDS011;62488;-37.670;-63.532;2023-02-02T02:40:48;10.38;;;6.28;;
44036;SDS011;62488;-37.670;-63.532;2023-02-02T02:43:23;6.47;;;5.32;;
44036;SDS011;62488;-37.670;-63.532;2023-02-02T02:46:02;9.75;;;5.80;;
44036;SDS011;62488;-37.670;-63.532;2023-02-02T02:48:31;10.15;;;6.55;;
44036;SDS011;62488;-37.670;-63.532;2023-02-02T02:51:07;7.88;;;6.53;;
44036;SDS011;62488;-37.670;-63.532;2023-02-02T02:53:55;7.00;;;6.40;;
44036;SDS011;62488;-37.670;-63.532;2023-02-02T02:56:24;9.25;;;5.75;;
44036;SDS011;62488;-37.670;-63.532;2023-02-02T02:59:06;5.50;;;4.88;;
44036;SDS011;62488;-37.670;-63.532;2023-02-02T03:01:58;9.05;;;5.78;;
44036;SDS011;62488;-37.670;-63.532;2023-02-02T03:05:02;9.23;;;7.10;;
44036;SDS011;62488;-37.670;-63.532;2023-02-02T03:08:10;9.07;;;6.10;;
44036;SDS011;62488;-37.670;-63.532;2023-02-02T03:10:54;7.53;;;5.85;;
44036;SDS011;62488;-37.670;-63.532;2023-02-02T03:13:23;8.05;;;7.25;;
44036;SDS011;62488;-37.670;-63.532;2023-02-02T03:15:52;6.73;;;6.20;;
44036;SDS011;62488;-37.670;-63.532;2023-02-02T03:18:20;7.30;;;6.45;;
44036;SDS011;62488;-37.670;-63.532;2023-02-02T03:20:49;7.50;;;6.70;;
44036;SDS011;62488;-37.670;-63.532;2023-02-02T03:23:16;6.47;;;5.90;;
44036;SDS011;62488;-37.670;-63.532;2023-02-02T03:25:44;7.43;;;6.68;;
44036;SDS011;62488;-37.670;-63.532;2023-02-02T03:28:11;6.68;;;6.05;;
44036;SDS011;62488;-37.670;-63.532;2023-02-02T03:30:39;9.25;;;5.90;;
44036;SDS011;62488;-37.670;-63.532;2023-02-02T03:33:08;6.18;;;5.65;;
44036;SDS011;62488;-37.670;-63.532;2023-02-02T03:35:36;7.72;;;6.22;;
44036;SDS011;62488;-37.670;-63.532;2023-02-02T03:38:03;6.47;;;5.80;;
44036;SDS011;62488;-37.670;-63.532;2023-02-02T03:40:30;5.97;;;5.45;;
44036;SDS011;62488;-37.670;-63.532;2023-02-02T03:42:57;9.13;;;5.50;;
44036;SDS011;62488;-37.670;-63.532;2023-02-02T03:45:26;6.53;;;5.32;;
44036;SDS011;62488;-37.670;-63.532;2023-02-02T03:50:20;6.93;;;6.13;;
44036;SDS011;62488;-37.670;-63.532;2023-02-02T03:52:47;7.28;;;6.55;;
44036;SDS011;62488;-37.670;-63.532;2023-02-02T03:55:13;7.28;;;6.55;;
44036;SDS011;62488;-37.670;-63.532;2023-02-02T03:57:40;7.55;;;6.85;;
44036;SDS011;62488;-37.670;-63.532;2023-02-02T04:00:08;7.07;;;6.28;;
44036;SDS011;62488;-37.670;-63.532;2023-02-02T04:02:35;8.35;;;7.53;;
44036;SDS011;62488;-37.670;-63.532;2023-02-02T04:05:03;7.63;;;6.30;;
44036;SDS011;62488;-37.670;-63.532;2023-02-02T04:07:30;10.35;;;9.27;;
44036;SDS011;62488;-37.670;-63.532;2023-02-02T04:09:57;10.90;;;9.05;;
44036;SDS011;62488;-37.670;-63.532;2023-02-02T04:12:24;8.45;;;7.65;;
44036;SDS011;62488;-37.670;-63.532;2023-02-02T04:14:51;8.32;;;7.55;;
44036;SDS011;62488;-37.670;-63.532;2023-02-02T04:17:18;10.48;;;8.68;;
44036;SDS011;62488;-37.670;-63.532;2023-02-02T04:19:45;10.57;;;8.63;;
44036;SDS011;62488;-37.670;-63.532;2023-02-02T04:22:12;9.20;;;8.20;;
44036;SDS011;62488;-37.670;-63.532;2023-02-02T04:24:39;10.15;;;8.00;;
44036;SDS011;62488;-37.670;-63.532;2023-02-02T04:27:06;12.60;;;8.35;;
44036;SDS011;62488;-37.670;-63.532;2023-02-02T04:29:33;8.75;;;7.88;;
44036;SDS011;62488;-37.670;-63.532;2023-02-02T04:32:00;8.93;;;8.05;;
44036;SDS011;62488;-37.670;-63.532;2023-02-02T04:34:27;8.82;;;8.02;;
44036;SDS011;62488;-37.670;-63.532;2023-02-02T04:36:54;8.73;;;7.82;;
44036;SDS011;62488;-37.670;-63.532;2023-02-02T04:39:21;12.30;;;9.57;;
44036;SDS011;62488;-37.670;-63.532;2023-02-02T04:41:48;10.43;;;6.32;;
44036;SDS011;62488;-37.670;-63.532;2023-02-02T04:44:15;9.85;;;8.93;;
44036;SDS011;62488;-37.670;-63.532;2023-02-02T04:46:42;10.18;;;7.28;;
44036;SDS011;62488;-37.670;-63.532;2023-02-02T04:49:10;7.82;;;7.00;;
44036;SDS011;62488;-37.670;-63.532;2023-02-02T04:51:37;10.32;;;7.90;;
44036;SDS011;62488;-37.670;-63.532;2023-02-02T04:54:05;9.57;;;8.20;;
44036;SDS011;62488;-37.670;-63.532;2023-02-02T04:56:32;9.93;;;9.02;;
44036;SDS011;62488;-37.670;-63.532;2023-02-02T04:58:59;10.88;;;9.07;;
44036;SDS011;62488;-37.670;-63.532;2023-02-02T05:01:26;10.40;;;9.25;;
44036;SDS011;62488;-37.670;-63.532;2023-02-02T05:03:55;11.52;;;9.25;;
44036;SDS011;62488;-37.670;-63.532;2023-02-02T05:06:22;13.85;;;11.10;;
44036;SDS011;62488;-37.670;-63.532;2023-02-02T05:08:50;10.18;;;8.60;;
44036;SDS011;62488;-37.670;-63.532;2023-02-02T05:11:18;8.07;;;7.43;;
44036;SDS011;62488;-37.670;-63.532;2023-02-02T05:13:47;9.55;;;8.60;;
44036;SDS011;62488;-37.670;-63.532;2023-02-02T05:16:15;9.23;;;7.50;;
44036;SDS011;62488;-37.670;-63.532;2023-02-02T05:18:53;10.18;;;9.13;;
44036;SDS011;62488;-37.670;-63.532;2023-02-02T05:21:22;8.87;;;7.67;;
44036;SDS011;62488;-37.670;-63.532;2023-02-02T05:23:49;10.48;;;7.65;;
44036;SDS011;62488;-37.670;-63.532;2023-02-02T05:26:18;11.88;;;7.68;;
44036;SDS011;62488;-37.670;-63.532;2023-02-02T05:28:47;14.55;;;8.73;;
44036;SDS011;62488;-37.670;-63.532;2023-02-02T05:31:14;12.18;;;9.15;;
44036;SDS011;62488;-37.670;-63.532;2023-02-02T05:33:42;9.70;;;8.57;;
44036;SDS011;62488;-37.670;-63.532;2023-02-02T05:36:09;10.82;;;9.75;;
44036;SDS011;62488;-37.670;-63.532;2023-02-02T05:38:36;12.25;;;10.38;;
44036;SDS011;62488;-37.670;-63.532;2023-02-02T05:41:03;21.13;;;11.63;;
44036;SDS011;62488;-37.670;-63.532;2023-02-02T05:43:31;16.00;;;11.63;;
44036;SDS011;62488;-37.670;-63.532;2023-02-02T05:45:58;13.93;;;10.90;;
44036;SDS011;62488;-37.670;-63.532;2023-02-02T05:48:26;14.80;;;13.05;;
44036;SDS011;62488;-37.670;-63.532;2023-02-02T05:51:04;21.95;;;12.65;;
44036;SDS011;62488;-37.670;-63.532;2023-02-02T05:53:45;15.38;;;13.88;;
44036;SDS011;62488;-37.670;-63.532;2023-02-02T05:56:12;16.92;;;13.93;;
44036;SDS011;62488;-37.670;-63.532;2023-02-02T05:58:40;16.98;;;13.07;;
44036;SDS011;62488;-37.670;-63.532;2023-02-02T06:01:08;13.70;;;12.30;;
44036;SDS011;62488;-37.670;-63.532;2023-02-02T06:03:36;12.65;;;11.35;;
44036;SDS011;62488;-37.670;-63.532;2023-02-02T06:06:03;17.50;;;13.25;;
44036;SDS011;62488;-37.670;-63.532;2023-02-02T06:08:30;15.70;;;12.65;;
44036;SDS011;62488;-37.670;-63.532;2023-02-02T06:10:57;13.98;;;12.57;;
44036;SDS011;62488;-37.670;-63.532;2023-02-02T06:13:24;15.45;;;13.77;;
44036;SDS011;62488;-37.670;-63.532;2023-02-02T06:15:50;15.63;;;13.48;;
44036;SDS011;62488;-37.670;-63.532;2023-02-02T06:18:17;14.43;;;11.60;;
44036;SDS011;62488;-37.670;-63.532;2023-02-02T06:20:44;17.70;;;12.80;;
44036;SDS011;62488;-37.670;-63.532;2023-02-02T06:23:12;14.27;;;12.52;;
44036;SDS011;62488;-37.670;-63.532;2023-02-02T06:25:39;14.25;;;12.80;;
44036;SDS011;62488;-37.670;-63.532;2023-02-02T06:28:06;15.65;;;13.38;;
44036;SDS011;62488;-37.670;-63.532;2023-02-02T06:30:34;16.05;;;14.27;;
44036;SDS011;62488;-37.670;-63.532;2023-02-02T06:33:01;15.45;;;12.65;;
44036;SDS011;62488;-37.670;-63.532;2023-02-02T06:35:28;15.63;;;13.48;;
44036;SDS011;62488;-37.670;-63.532;2023-02-02T06:37:54;16.55;;;12.73;;
44036;SDS011;62488;-37.670;-63.532;2023-02-02T06:40:22;14.10;;;12.77;;
44036;SDS011;62488;-37.670;-63.532;2023-02-02T06:42:54;15.88;;;13.95;;
44036;SDS011;62488;-37.670;-63.532;2023-02-02T06:45:25;15.00;;;13.40;;
44036;SDS011;62488;-37.670;-63.532;2023-02-02T06:47:54;14.18;;;12.82;;
44036;SDS011;62488;-37.670;-63.532;2023-02-02T06:50:28;14.38;;;13.02;;
44036;SDS011;62488;-37.670;-63.532;2023-02-02T06:52:55;13.55;;;11.57;;
44036;SDS011;62488;-37.670;-63.532;2023-02-02T06:55:22;15.32;;;13.77;;
44036;SDS011;62488;-37.670;-63.532;2023-02-02T06:57:54;15.43;;;13.82;;
44036;SDS011;62488;-37.670;-63.532;2023-02-02T07:00:25;17.73;;;15.00;;
44036;SDS011;62488;-37.670;-63.532;2023-02-02T07:02:53;13.50;;;12.20;;
44036;SDS011;62488;-37.670;-63.532;2023-02-02T07:05:20;15.35;;;13.52;;
44036;SDS011;62488;-37.670;-63.532;2023-02-02T07:07:50;14.55;;;12.35;;
44036;SDS011;62488;-37.670;-63.532;2023-02-02T07:10:17;14.15;;;12.55;;
44036;SDS011;62488;-37.670;-63.532;2023-02-02T07:12:44;11.40;;;10.25;;
44036;SDS011;62488;-37.670;-63.532;2023-02-02T07:15:11;11.20;;;10.10;;
44036;SDS011;62488;-37.670;-63.532;2023-02-02T07:17:38;11.93;;;10.82;;
44036;SDS011;62488;-37.670;-63.532;2023-02-02T07:20:05;15.50;;;11.48;;
44036;SDS011;62488;-37.670;-63.532;2023-02-02T07:22:33;11.55;;;10.45;;
44036;SDS011;62488;-37.670;-63.532;2023-02-02T07:25:02;11.63;;;10.43;;
44036;SDS011;62488;-37.670;-63.532;2023-02-02T07:27:30;10.50;;;9.52;;
44036;SDS011;62488;-37.670;-63.532;2023-02-02T07:29:57;11.45;;;9.10;;
44036;SDS011;62488;-37.670;-63.532;2023-02-02T07:32:24;10.75;;;8.63;;
44036;SDS011;62488;-37.670;-63.532;2023-02-02T07:34:52;9.15;;;8.25;;
44036;SDS011;62488;-37.670;-63.532;2023-02-02T07:37:19;8.73;;;7.88;;
44036;SDS011;62488;-37.670;-63.532;2023-02-02T07:39:46;8.27;;;7.35;;
44036;SDS011;62488;-37.670;-63.532;2023-02-02T07:42:13;10.90;;;7.53;;
44036;SDS011;62488;-37.670;-63.532;2023-02-02T07:44:40;8.15;;;6.75;;
44036;SDS011;62488;-37.670;-63.532;2023-02-02T07:47:07;8.15;;;7.10;;
44036;SDS011;62488;-37.670;-63.532;2023-02-02T07:49:34;8.23;;;6.65;;
44036;SDS011;62488;-37.670;-63.532;2023-02-02T07:52:00;9.75;;;8.82;;
44036;SDS011;62488;-37.670;-63.532;2023-02-02T07:54:27;9.75;;;8.25;;
44036;SDS011;62488;-37.670;-63.532;2023-02-02T07:56:56;8.43;;;7.60;;
44036;SDS011;62488;-37.670;-63.532;2023-02-02T07:59:25;12.53;;;9.60;;
44036;SDS011;62488;-37.670;-63.532;2023-02-02T08:01:52;10.40;;;8.70;;
44036;SDS011;62488;-37.670;-63.532;2023-02-02T08:04:19;10.30;;;9.25;;
44036;SDS011;62488;-37.670;-63.532;2023-02-02T08:06:46;8.52;;;7.82;;
44036;SDS011;62488;-37.670;-63.532;2023-02-02T08:09:13;10.55;;;9.65;;
44036;SDS011;62488;-37.670;-63.532;2023-02-02T08:11:41;9.50;;;8.60;;
44036;SDS011;62488;-37.670;-63.532;2023-02-02T08:14:11;9.88;;;9.05;;
44036;SDS011;62488;-37.670;-63.532;2023-02-02T08:16:38;10.07;;;9.07;;
44036;SDS011;62488;-37.670;-63.532;2023-02-02T08:19:05;12.18;;;10.98;;
44036;SDS011;62488;-37.670;-63.532;2023-02-02T08:21:33;12.18;;;10.52;;
44036;SDS011;62488;-37.670;-63.532;2023-02-02T08:24:00;12.18;;;11.07;;
44036;SDS011;62488;-37.670;-63.532;2023-02-02T08:26:29;14.02;;;10.80;;
44036;SDS011;62488;-37.670;-63.532;2023-02-02T08:28:57;12.63;;;11.32;;
44036;SDS011;62488;-37.670;-63.532;2023-02-02T08:31:27;11.98;;;10.75;;
44036;SDS011;62488;-37.670;-63.532;2023-02-02T08:33:56;12.50;;;11.20;;
44036;SDS011;62488;-37.670;-63.532;2023-02-02T08:36:23;15.80;;;11.25;;
44036;SDS011;62488;-37.670;-63.532;2023-02-02T08:38:51;16.40;;;12.32;;
44036;SDS011;62488;-37.670;-63.532;2023-02-02T08:41:20;13.52;;;11.95;;
44036;SDS011;62488;-37.670;-63.532;2023-02-02T08:43:49;12.82;;;11.50;;
44036;SDS011;62488;-37.670;-63.532;2023-02-02T08:46:16;12.23;;;11.02;;
44036;SDS011;62488;-37.670;-63.532;2023-02-02T08:48:44;13.55;;;12.10;;
44036;SDS011;62488;-37.670;-63.532;2023-02-02T08:51:13;13.05;;;11.85;;
44036;SDS011;62488;-37.670;-63.532;2023-02-02T08:53:45;14.77;;;12.93;;
44036;SDS011;62488;-37.670;-63.532;2023-02-02T08:56:13;11.48;;;10.40;;
44036;SDS011;62488;-37.670;-63.532;2023-02-02T08:58:52;13.25;;;11.98;;
44036;SDS011;62488;-37.670;-63.532;2023-02-02T09:01:21;17.05;;;12.48;;
44036;SDS011;62488;-37.670;-63.532;2023-02-02T09:03:58;14.02;;;11.77;;
44036;SDS011;62488;-37.670;-63.532;2023-02-02T09:06:35;12.23;;;11.02;;
44036;SDS011;62488;-37.670;-63.532;2023-02-02T09:09:04;11.98;;;10.68;;
44036;SDS011;62488;-37.670;-63.532;2023-02-02T09:11:32;12.40;;;11.13;;
44036;SDS011;62488;-37.670;-63.532;2023-02-02T09:14:00;10.07;;;9.05;;
44036;SDS011;62488;-37.670;-63.532;2023-02-02T09:16:30;11.27;;;10.27;;
44036;SDS011;62488;-37.670;-63.532;2023-02-02T09:18:59;11.23;;;10.15;;
44036;SDS011;62488;-37.670;-63.532;2023-02-02T09:21:26;10.57;;;9.40;;
44036;SDS011;62488;-37.670;-63.532;2023-02-02T09:23:53;10.77;;;9.73;;
44036;SDS011;62488;-37.670;-63.532;2023-02-02T09:26:21;9.18;;;8.27;;
44036;SDS011;62488;-37.670;-63.532;2023-02-02T09:28:49;9.23;;;8.48;;
44036;SDS011;62488;-37.670;-63.532;2023-02-02T09:31:19;8.35;;;7.57;;
44036;SDS011;62488;-37.670;-63.532;2023-02-02T09:33:47;10.98;;;9.13;;
44036;SDS011;62488;-37.670;-63.532;2023-02-02T09:36:15;11.27;;;10.18;;
44036;SDS011;62488;-37.670;-63.532;2023-02-02T09:38:47;8.98;;;8.07;;
44036;SDS011;62488;-37.670;-63.532;2023-02-02T09:41:26;10.52;;;9.50;;
44036;SDS011;62488;-37.670;-63.532;2023-02-02T09:57:49;12.45;;;10.27;;
44036;SDS011;62488;-37.670;-63.532;2023-02-02T10:00:33;8.85;;;8.00;;
44036;SDS011;62488;-37.670;-63.532;2023-02-02T10:03:52;9.85;;;8.10;;
44036;SDS011;62488;-37.670;-63.532;2023-02-02T10:08:54;7.60;;;6.90;;
44036;SDS011;62488;-37.670;-63.532;2023-02-02T10:17:57;9.38;;;5.43;;
44036;SDS011;62488;-37.670;-63.532;2023-02-02T10:20:41;5.43;;;4.93;;
44036;SDS011;62488;-37.670;-63.532;2023-02-02T10:23:25;5.75;;;5.25;;
44036;SDS011;62488;-37.670;-63.532;2023-02-02T10:26:03;4.65;;;4.25;;
44036;SDS011;62488;-37.670;-63.532;2023-02-02T10:29:01;6.28;;;4.50;;
44036;SDS011;62488;-37.670;-63.532;2023-02-02T10:31:47;4.50;;;4.15;;
44036;SDS011;62488;-37.670;-63.532;2023-02-02T10:34:29;5.43;;;4.93;;
44036;SDS011;62488;-37.670;-63.532;2023-02-02T10:37:23;5.45;;;4.10;;
44036;SDS011;62488;-37.670;-63.532;2023-02-02T10:46:07;8.93;;;3.70;;
44036;SDS011;62488;-37.670;-63.532;2023-02-02T10:48:38;3.28;;;2.90;;
44036;SDS011;62488;-37.670;-63.532;2023-02-02T10:53:45;4.70;;;3.03;;
44036;SDS011;62488;-37.670;-63.532;2023-02-02T11:02:08;4.70;;;2.80;;
44036;SDS011;62488;-37.670;-63.532;2023-02-02T11:04:38;10.23;;;3.60;;
44036;SDS011;62488;-37.670;-63.532;2023-02-02T11:07:40;3.17;;;2.22;;
44036;SDS011;62488;-37.670;-63.532;2023-02-02T11:10:09;5.88;;;2.58;;
44036;SDS011;62488;-37.670;-63.532;2023-02-02T11:12:36;2.63;;;2.08;;
44036;SDS011;62488;-37.670;-63.532;2023-02-02T11:15:28;3.17;;;2.05;;
44036;SDS011;62488;-37.670;-63.532;2023-02-02T11:17:55;3.75;;;2.40;;
44036;SDS011;62488;-37.670;-63.532;2023-02-02T11:20:40;2.08;;;1.60;;
44036;SDS011;62488;-37.670;-63.532;2023-02-02T11:23:08;3.03;;;1.90;;
44036;SDS011;62488;-37.670;-63.532;2023-02-02T11:25:44;3.08;;;2.15;;
44036;SDS011;62488;-37.670;-63.532;2023-02-02T11:28:20;2.47;;;1.42;;
44036;SDS011;62488;-37.670;-63.532;2023-02-02T11:30:51;6.45;;;1.83;;
44036;SDS011;62488;-37.670;-63.532;2023-02-02T11:33:29;2.72;;;1.48;;
44036;SDS011;62488;-37.670;-63.532;2023-02-02T11:36:04;2.13;;;1.20;;
44036;SDS011;62488;-37.670;-63.532;2023-02-02T11:38:43;2.88;;;1.20;;
44036;SDS011;62488;-37.670;-63.532;2023-02-02T11:41:10;2.47;;;1.42;;
44036;SDS011;62488;-37.670;-63.532;2023-02-02T11:43:46;6.18;;;1.90;;
44036;SDS011;62488;-37.670;-63.532;2023-02-02T11:46:22;5.03;;;1.85;;
44036;SDS011;62488;-37.670;-63.532;2023-02-02T11:49:00;2.75;;;1.45;;
44036;SDS011;62488;-37.670;-63.532;2023-02-02T11:51:32;1.10;;;1.00;;
44036;SDS011;62488;-37.670;-63.532;2023-02-02T11:54:00;1.95;;;1.05;;
44036;SDS011;62488;-37.670;-63.532;2023-02-02T11:56:35;1.35;;;1.10;;
44036;SDS011;62488;-37.670;-63.532;2023-02-02T11:59:03;2.08;;;1.02;;
44036;SDS011;62488;-37.670;-63.532;2023-02-02T12:01:37;2.47;;;1.33;;
44036;SDS011;62488;-37.670;-63.532;2023-02-02T12:06:43;2.33;;;1.00;;
44036;SDS011;62488;-37.670;-63.532;2023-02-02T12:09:11;7.65;;;1.80;;
44036;SDS011;62488;-37.670;-63.532;2023-02-02T12:15:33;2.65;;;1.02;;
44036;SDS011;62488;-37.670;-63.532;2023-02-02T12:17:54;2.38;;;1.10;;
44036;SDS011;62488;-37.670;-63.532;2023-02-02T12:23:15;2.83;;;0.98;;
44036;SDS011;62488;-37.670;-63.532;2023-02-02T12:28:42;3.13;;;1.25;;
44036;SDS011;62488;-37.670;-63.532;2023-02-02T12:34:23;3.55;;;1.10;;
44036;SDS011;62488;-37.670;-63.532;2023-02-02T12:36:57;1.70;;;1.08;;
44036;SDS011;62488;-37.670;-63.532;2023-02-02T12:42:17;1.73;;;1.27;;
44036;SDS011;62488;-37.670;-63.532;2023-02-02T12:45:10;4.15;;;1.10;;
44036;SDS011;62488;-37.670;-63.532;2023-02-02T12:58:58;6.63;;;1.58;;
44036;SDS011;62488;-37.670;-63.532;2023-02-02T13:07:45;1.83;;;1.08;;
44036;SDS011;62488;-37.670;-63.532;2023-02-02T13:13:10;0.75;;;0.70;;
44036;SDS011;62488;-37.670;-63.532;2023-02-02T13:15:59;10.75;;;1.25;;
44036;SDS011;62488;-37.670;-63.532;2023-02-02T13:18:38;50.88;;;7.20;;
44036;SDS011;62488;-37.670;-63.532;2023-02-02T13:21:14;2.13;;;1.08;;
44036;SDS011;62488;-37.670;-63.532;2023-02-02T13:23:46;5.40;;;1.38;;
44036;SDS011;62488;-37.670;-63.532;2023-02-02T13:26:21;4.88;;;1.00;;
44036;SDS011;62488;-37.670;-63.532;2023-02-02T13:37:15;7.90;;;1.40;;
44036;SDS011;62488;-37.670;-63.532;2023-02-02T13:42:42;10.60;;;2.72;;
44036;SDS011;62488;-37.670;-63.532;2023-02-02T13:48:27;3.85;;;0.80;;
44036;SDS011;62488;-37.670;-63.532;2023-02-02T14:06:00;1.13;;;0.90;;
44036;SDS011;62488;-37.670;-63.532;2023-02-02T14:10:55;4.20;;;1.55;;
44036;SDS011;62488;-37.670;-63.532;2023-02-02T14:13:28;6.28;;;0.95;;
44036;SDS011;62488;-37.670;-63.532;2023-02-02T14:16:58;1.98;;;1.10;;
44036;SDS011;62488;-37.670;-63.532;2023-02-02T14:19:16;1.90;;;0.88;;
44036;SDS011;62488;-37.670;-63.532;2023-02-02T14:22:14;1.52;;;0.80;;
44036;SDS011;62488;-37.670;-63.532;2023-02-02T14:25:02;2.57;;;0.90;;
44036;SDS011;62488;-37.670;-63.532;2023-02-02T14:27:53;20.35;;;2.65;;
44036;SDS011;62488;-37.670;-63.532;2023-02-02T14:30:26;3.80;;;1.20;;
44036;SDS011;62488;-37.670;-63.532;2023-02-02T14:36:04;4.53;;;0.93;;
44036;SDS011;62488;-37.670;-63.532;2023-02-02T14:44:07;5.30;;;1.50;;
44036;SDS011;62488;-37.670;-63.532;2023-02-02T14:46:37;5.47;;;1.60;;
44036;SDS011;62488;-37.670;-63.532;2023-02-02T14:49:19;3.33;;;1.33;;
44036;SDS011;62488;-37.670;-63.532;2023-02-02T14:51:50;2.53;;;1.05;;
44036;SDS011;62488;-37.670;-63.532;2023-02-02T14:54:21;8.63;;;1.08;;
44036;SDS011;62488;-37.670;-63.532;2023-02-02T14:56:56;4.93;;;1.42;;
44036;SDS011;62488;-37.670;-63.532;2023-02-02T14:59:26;12.93;;;2.00;;
44036;SDS011;62488;-37.670;-63.532;2023-02-02T15:02:02;2.67;;;1.00;;
44036;SDS011;62488;-37.670;-63.532;2023-02-02T15:04:35;2.42;;;1.10;;
44036;SDS011;62488;-37.670;-63.532;2023-02-02T15:09:51;11.07;;;1.52;;
44036;SDS011;62488;-37.670;-63.532;2023-02-02T15:12:26;18.73;;;3.08;;
44036;SDS011;62488;-37.670;-63.532;2023-02-02T15:17:59;14.85;;;3.35;;
44036;SDS011;62488;-37.670;-63.532;2023-02-02T15:20:33;3.00;;;1.25;;
44036;SDS011;62488;-37.670;-63.532;2023-02-02T15:34:44;8.88;;;2.30;;
44036;SDS011;62488;-37.670;-63.532;2023-02-02T15:37:11;10.07;;;1.60;;
44036;SDS011;62488;-37.670;-63.532;2023-02-02T15:39:45;2.70;;;1.20;;
44036;SDS011;62488;-37.670;-63.532;2023-02-02T15:45:01;2.20;;;1.30;;
44036;SDS011;62488;-37.670;-63.532;2023-02-02T15:47:34;5.88;;;1.15;;
44036;SDS011;62488;-37.670;-63.532;2023-02-02T15:50:03;1.55;;;1.00;;
44036;SDS011;62488;-37.670;-63.532;2023-02-02T15:52:44;7.05;;;1.65;;
44036;SDS011;62488;-37.670;-63.532;2023-02-02T16:00:56;9.07;;;2.60;;
44036;SDS011;62488;-37.670;-63.532;2023-02-02T16:03:59;4.88;;;1.65;;
44036;SDS011;62488;-37.670;-63.532;2023-02-02T16:06:36;3.65;;;1.30;;
44036;SDS011;62488;-37.670;-63.532;2023-02-02T16:09:03;19.88;;;3.20;;
44036;SDS011;62488;-37.670;-63.532;2023-02-02T16:11:31;4.13;;;1.10;;
44036;SDS011;62488;-37.670;-63.532;2023-02-02T16:14:00;9.00;;;1.63;;
44036;SDS011;62488;-37.670;-63.532;2023-02-02T16:19:10;11.07;;;1.77;;
44036;SDS011;62488;-37.670;-63.532;2023-02-02T16:21:41;11.00;;;1.15;;
44036;SDS011;62488;-37.670;-63.532;2023-02-02T16:24:25;4.53;;;1.20;;
44036;SDS011;62488;-37.670;-63.532;2023-02-02T16:27:00;5.05;;;1.65;;
44036;SDS011;62488;-37.670;-63.532;2023-02-02T16:29:30;3.88;;;1.60;;
44036;SDS011;62488;-37.670;-63.532;2023-02-02T16:31:59;2.40;;;0.93;;
44036;SDS011;62488;-37.670;-63.532;2023-02-02T16:37:06;7.53;;;1.27;;
44036;SDS011;62488;-37.670;-63.532;2023-02-02T16:39:42;7.40;;;1.10;;
44036;SDS011;62488;-37.670;-63.532;2023-02-02T16:42:27;2.78;;;1.38;;
44036;SDS011;62488;-37.670;-63.532;2023-02-02T16:44:58;8.38;;;1.88;;
44036;SDS011;62488;-37.670;-63.532;2023-02-02T16:49:53;4.50;;;1.00;;
44036;SDS011;62488;-37.670;-63.532;2023-02-02T16:52:54;3.72;;;1.00;;
44036;SDS011;62488;-37.670;-63.532;2023-02-02T16:55:27;6.88;;;1.35;;
44036;SDS011;62488;-37.670;-63.532;2023-02-02T16:57:56;23.40;;;3.55;;
44036;SDS011;62488;-37.670;-63.532;2023-02-02T17:00:25;5.88;;;1.98;;
44036;SDS011;62488;-37.670;-63.532;2023-02-02T17:03:04;2.53;;;1.40;;
44036;SDS011;62488;-37.670;-63.532;2023-02-02T17:05:37;4.75;;;1.30;;
44036;SDS011;62488;-37.670;-63.532;2023-02-02T17:08:11;1.27;;;0.80;;
44036;SDS011;62488;-37.670;-63.532;2023-02-02T17:10:40;9.93;;;1.60;;
44036;SDS011;62488;-37.670;-63.532;2023-02-02T17:15:55;5.10;;;1.13;;
44036;SDS011;62488;-37.670;-63.532;2023-02-02T17:18:23;4.25;;;1.30;;
44036;SDS011;62488;-37.670;-63.532;2023-02-02T17:20:51;4.72;;;1.17;;
44036;SDS011;62488;-37.670;-63.532;2023-02-02T17:23:25;3.53;;;1.05;;
44036;SDS011;62488;-37.670;-63.532;2023-02-02T17:25:54;5.93;;;1.35;;
44036;SDS011;62488;-37.670;-63.532;2023-02-02T17:28:22;8.43;;;2.17;;